sensor_id;sensor_type;location;lat;lon;timestamp;P1;durP1;ratioP1;P2;durP2;ratioP2
19889;SDS011;10107;51.198;6.824;2022-12-29T00:02:20;2.13;;;0.80;;
19889;SDS011;10107;51.198;6.824;2022-12-29T00:06:22;0.70;;;0.70;;
19889;SDS011;10107;51.198;6.824;2022-12-29T00:10:24;0.60;;;0.60;;
19889;SDS011;10107;51.198;6.824;2022-12-29T00:14:25;0.98;;;0.80;;
19889;SDS011;10107;51.198;6.824;2022-12-29T00:18:46;0.75;;;0.60;;
19889;SDS011;10107;51.198;6.824;2022-12-29T00:22:48;1.10;;;0.88;;
19889;SDS011;10107;51.198;6.824;2022-12-29T00:27:09;2.40;;;1.00;;
19889;SDS011;10107;51.198;6.824;2022-12-29T00:31:30;1.40;;;1.20;;
19889;SDS011;10107;51.198;6.824;2022-12-29T00:35:52;1.00;;;0.90;;
19889;SDS011;10107;51.198;6.824;2022-12-29T00:39:57;1.65;;;1.00;;
19889;SDS011;10107;51.198;6.824;2022-12-29T00:44:16;1.30;;;1.00;;
19889;SDS011;10107;51.198;6.824;2022-12-29T00:48:18;1.08;;;0.98;;
19889;SDS011;10107;51.198;6.824;2022-12-29T00:52:42;0.93;;;0.93;;
19889;SDS011;10107;51.198;6.824;2022-12-29T00:56:45;2.10;;;1.20;;
19889;SDS011;10107;51.198;6.824;2022-12-29T01:00:47;0.75;;;0.70;;
19889;SDS011;10107;51.198;6.824;2022-12-29T01:04:49;1.67;;;0.60;;
19889;SDS011;10107;51.198;6.824;2022-12-29T01:08:52;0.70;;;0.70;;
19889;SDS011;10107;51.198;6.824;2022-12-29T01:13:07;0.60;;;0.50;;
19889;SDS011;10107;51.198;6.824;2022-12-29T01:17:09;0.55;;;0.55;;
19889;SDS011;10107;51.198;6.824;2022-12-29T01:21:11;0.68;;;0.60;;
19889;SDS011;10107;51.198;6.824;2022-12-29T01:25:14;1.50;;;0.50;;
19889;SDS011;10107;51.198;6.824;2022-12-29T01:29:16;0.82;;;0.50;;
19889;SDS011;10107;51.198;6.824;2022-12-29T01:33:19;0.82;;;0.52;;
19889;SDS011;10107;51.198;6.824;2022-12-29T01:37:21;1.30;;;0.40;;
19889;SDS011;10107;51.198;6.824;2022-12-29T01:41:24;0.85;;;0.30;;
19889;SDS011;10107;51.198;6.824;2022-12-29T01:45:26;0.88;;;0.40;;
19889;SDS011;10107;51.198;6.824;2022-12-29T01:49:28;1.35;;;0.40;;
19889;SDS011;10107;51.198;6.824;2022-12-29T01:53:30;1.50;;;0.50;;
19889;SDS011;10107;51.198;6.824;2022-12-29T01:57:37;0.57;;;0.55;;
19889;SDS011;10107;51.198;6.824;2022-12-29T02:01:41;1.52;;;0.57;;
19889;SDS011;10107;51.198;6.824;2022-12-29T02:05:45;2.70;;;0.77;;
19889;SDS011;10107;51.198;6.824;2022-12-29T02:09:51;1.65;;;0.60;;
19889;SDS011;10107;51.198;6.824;2022-12-29T02:13:56;2.10;;;0.65;;
19889;SDS011;10107;51.198;6.824;2022-12-29T02:18:03;1.27;;;0.90;;
19889;SDS011;10107;51.198;6.824;2022-12-29T02:22:18;1.48;;;0.70;;
19889;SDS011;10107;51.198;6.824;2022-12-29T02:26:30;1.38;;;0.77;;
19889;SDS011;10107;51.198;6.824;2022-12-29T02:30:50;1.65;;;0.70;;
19889;SDS011;10107;51.198;6.824;2022-12-29T02:35:01;1.52;;;0.90;;
19889;SDS011;10107;51.198;6.824;2022-12-29T02:39:11;2.25;;;0.98;;
19889;SDS011;10107;51.198;6.824;2022-12-29T02:43:21;1.30;;;0.88;;
19889;SDS011;10107;51.198;6.824;2022-12-29T02:47:29;1.80;;;1.10;;
19889;SDS011;10107;51.198;6.824;2022-12-29T02:51:40;2.25;;;1.05;;
19889;SDS011;10107;51.198;6.824;2022-12-29T02:55:49;1.73;;;1.05;;
19889;SDS011;10107;51.198;6.824;2022-12-29T02:59:51;2.25;;;0.85;;
19889;SDS011;10107;51.198;6.824;2022-12-29T03:04:02;2.10;;;1.10;;
19889;SDS011;10107;51.198;6.824;2022-12-29T03:08:17;1.08;;;1.00;;
19889;SDS011;10107;51.198;6.824;2022-12-29T03:12:29;2.23;;;0.80;;
19889;SDS011;10107;51.198;6.824;2022-12-29T03:16:51;1.05;;;0.70;;
19889;SDS011;10107;51.198;6.824;2022-12-29T03:21:02;0.80;;;0.75;;
19889;SDS011;10107;51.198;6.824;2022-12-29T03:25:09;1.05;;;0.73;;
19889;SDS011;10107;51.198;6.824;2022-12-29T03:29:15;3.25;;;0.60;;
19889;SDS011;10107;51.198;6.824;2022-12-29T03:33:21;1.75;;;0.63;;
19889;SDS011;10107;51.198;6.824;2022-12-29T03:37:27;0.75;;;0.55;;
19889;SDS011;10107;51.198;6.824;2022-12-29T03:41:33;0.70;;;0.60;;
19889;SDS011;10107;51.198;6.824;2022-12-29T03:45:37;1.70;;;0.68;;
19889;SDS011;10107;51.198;6.824;2022-12-29T03:49:39;1.95;;;0.60;;
19889;SDS011;10107;51.198;6.824;2022-12-29T03:53:44;1.88;;;0.65;;
19889;SDS011;10107;51.198;6.824;2022-12-29T03:57:45;0.47;;;0.47;;
19889;SDS011;10107;51.198;6.824;2022-12-29T04:01:51;1.35;;;0.50;;
19889;SDS011;10107;51.198;6.824;2022-12-29T04:05:53;0.52;;;0.50;;
19889;SDS011;10107;51.198;6.824;2022-12-29T04:09:56;1.33;;;0.60;;
19889;SDS011;10107;51.198;6.824;2022-12-29T04:14:00;0.50;;;0.40;;
19889;SDS011;10107;51.198;6.824;2022-12-29T04:18:04;6.45;;;0.80;;
19889;SDS011;10107;51.198;6.824;2022-12-29T04:22:07;2.17;;;0.60;;
19889;SDS011;10107;51.198;6.824;2022-12-29T04:26:11;0.85;;;0.65;;
19889;SDS011;10107;51.198;6.824;2022-12-29T04:30:23;0.90;;;0.70;;
19889;SDS011;10107;51.198;6.824;2022-12-29T04:34:40;5.72;;;1.83;;
19889;SDS011;10107;51.198;6.824;2022-12-29T04:38:41;2.20;;;0.90;;
19889;SDS011;10107;51.198;6.824;2022-12-29T04:42:45;2.90;;;0.70;;
19889;SDS011;10107;51.198;6.824;2022-12-29T04:46:47;2.10;;;0.90;;
19889;SDS011;10107;51.198;6.824;2022-12-29T04:51:24;3.35;;;1.83;;
19889;SDS011;10107;51.198;6.824;2022-12-29T04:55:25;1.88;;;0.90;;
19889;SDS011;10107;51.198;6.824;2022-12-29T04:59:29;1.90;;;1.23;;
19889;SDS011;10107;51.198;6.824;2022-12-29T05:03:32;1.08;;;0.70;;
19889;SDS011;10107;51.198;6.824;2022-12-29T05:07:34;2.00;;;1.50;;
19889;SDS011;10107;51.198;6.824;2022-12-29T05:11:36;1.75;;;0.82;;
19889;SDS011;10107;51.198;6.824;2022-12-29T05:15:41;1.27;;;0.90;;
19889;SDS011;10107;51.198;6.824;2022-12-29T05:19:51;1.60;;;0.88;;
19889;SDS011;10107;51.198;6.824;2022-12-29T05:23:53;1.27;;;0.95;;
19889;SDS011;10107;51.198;6.824;2022-12-29T05:27:56;1.70;;;0.90;;
19889;SDS011;10107;51.198;6.824;2022-12-29T05:32:12;1.73;;;0.90;;
19889;SDS011;10107;51.198;6.824;2022-12-29T05:36:14;2.47;;;1.00;;
19889;SDS011;10107;51.198;6.824;2022-12-29T05:40:20;2.03;;;1.05;;
19889;SDS011;10107;51.198;6.824;2022-12-29T05:44:22;1.33;;;0.70;;
19889;SDS011;10107;51.198;6.824;2022-12-29T05:48:47;2.03;;;0.70;;
19889;SDS011;10107;51.198;6.824;2022-12-29T05:52:55;0.95;;;0.70;;
19889;SDS011;10107;51.198;6.824;2022-12-29T05:56:57;2.67;;;0.70;;
19889;SDS011;10107;51.198;6.824;2022-12-29T06:00:59;1.40;;;0.70;;
19889;SDS011;10107;51.198;6.824;2022-12-29T06:05:02;1.52;;;1.08;;
19889;SDS011;10107;51.198;6.824;2022-12-29T06:09:05;1.65;;;0.88;;
19889;SDS011;10107;51.198;6.824;2022-12-29T06:13:09;2.15;;;1.00;;
19889;SDS011;10107;51.198;6.824;2022-12-29T06:17:14;1.67;;;0.70;;
19889;SDS011;10107;51.198;6.824;2022-12-29T06:21:17;1.10;;;0.70;;
19889;SDS011;10107;51.198;6.824;2022-12-29T06:25:20;1.40;;;1.00;;
19889;SDS011;10107;51.198;6.824;2022-12-29T06:29:22;3.28;;;0.90;;
19889;SDS011;10107;51.198;6.824;2022-12-29T06:33:24;2.33;;;0.95;;
19889;SDS011;10107;51.198;6.824;2022-12-29T06:37:28;1.35;;;0.90;;
19889;SDS011;10107;51.198;6.824;2022-12-29T06:41:30;1.90;;;0.73;;
19889;SDS011;10107;51.198;6.824;2022-12-29T06:46:01;1.08;;;0.70;;
19889;SDS011;10107;51.198;6.824;2022-12-29T06:50:03;2.15;;;0.88;;
19889;SDS011;10107;51.198;6.824;2022-12-29T06:54:07;2.15;;;0.85;;
19889;SDS011;10107;51.198;6.824;2022-12-29T06:58:08;3.22;;;1.05;;
19889;SDS011;10107;51.198;6.824;2022-12-29T07:02:10;1.90;;;0.70;;
19889;SDS011;10107;51.198;6.824;2022-12-29T07:10:17;2.60;;;0.80;;
19889;SDS011;10107;51.198;6.824;2022-12-29T07:14:18;2.17;;;0.60;;
19889;SDS011;10107;51.198;6.824;2022-12-29T07:18:20;2.17;;;0.70;;
19889;SDS011;10107;51.198;6.824;2022-12-29T07:22:21;1.52;;;0.80;;
19889;SDS011;10107;51.198;6.824;2022-12-29T07:26:24;2.38;;;0.80;;
19889;SDS011;10107;51.198;6.824;2022-12-29T07:30:26;2.90;;;0.98;;
19889;SDS011;10107;51.198;6.824;2022-12-29T07:34:28;2.58;;;1.05;;
19889;SDS011;10107;51.198;6.824;2022-12-29T07:38:30;3.97;;;1.10;;
19889;SDS011;10107;51.198;6.824;2022-12-29T07:42:33;2.83;;;1.00;;
19889;SDS011;10107;51.198;6.824;2022-12-29T07:46:34;1.13;;;0.63;;
19889;SDS011;10107;51.198;6.824;2022-12-29T07:50:36;2.72;;;0.77;;
19889;SDS011;10107;51.198;6.824;2022-12-29T07:54:38;2.75;;;1.13;;
19889;SDS011;10107;51.198;6.824;2022-12-29T07:58:41;5.30;;;1.20;;
19889;SDS011;10107;51.198;6.824;2022-12-29T08:02:43;2.15;;;0.73;;
19889;SDS011;10107;51.198;6.824;2022-12-29T08:06:44;4.82;;;0.90;;
19889;SDS011;10107;51.198;6.824;2022-12-29T08:10:47;2.72;;;0.77;;
19889;SDS011;10107;51.198;6.824;2022-12-29T08:14:50;3.05;;;1.02;;
19889;SDS011;10107;51.198;6.824;2022-12-29T08:18:51;3.43;;;1.00;;
19889;SDS011;10107;51.198;6.824;2022-12-29T08:22:53;3.20;;;1.05;;
19889;SDS011;10107;51.198;6.824;2022-12-29T08:26:55;4.53;;;1.23;;
19889;SDS011;10107;51.198;6.824;2022-12-29T08:30:58;2.17;;;1.00;;
19889;SDS011;10107;51.198;6.824;2022-12-29T08:39:02;5.95;;;2.10;;
19889;SDS011;10107;51.198;6.824;2022-12-29T08:43:04;5.80;;;2.80;;
19889;SDS011;10107;51.198;6.824;2022-12-29T08:47:08;6.38;;;2.08;;
19889;SDS011;10107;51.198;6.824;2022-12-29T08:51:10;5.22;;;2.40;;
19889;SDS011;10107;51.198;6.824;2022-12-29T08:55:13;4.05;;;1.80;;
19889;SDS011;10107;51.198;6.824;2022-12-29T08:59:15;5.30;;;2.42;;
19889;SDS011;10107;51.198;6.824;2022-12-29T09:03:20;4.32;;;1.42;;
19889;SDS011;10107;51.198;6.824;2022-12-29T09:11:24;2.42;;;1.00;;
19889;SDS011;10107;51.198;6.824;2022-12-29T09:15:26;4.95;;;1.17;;
19889;SDS011;10107;51.198;6.824;2022-12-29T09:19:29;4.68;;;1.35;;
19889;SDS011;10107;51.198;6.824;2022-12-29T09:23:32;4.67;;;1.20;;
19889;SDS011;10107;51.198;6.824;2022-12-29T09:27:34;4.83;;;1.20;;
19889;SDS011;10107;51.198;6.824;2022-12-29T09:31:36;5.93;;;1.20;;
19889;SDS011;10107;51.198;6.824;2022-12-29T09:35:42;2.88;;;0.93;;
19889;SDS011;10107;51.198;6.824;2022-12-29T09:39:44;5.72;;;1.20;;
19889;SDS011;10107;51.198;6.824;2022-12-29T09:43:50;2.38;;;1.00;;
19889;SDS011;10107;51.198;6.824;2022-12-29T09:48:03;5.32;;;1.13;;
19889;SDS011;10107;51.198;6.824;2022-12-29T09:52:10;4.28;;;1.15;;
19889;SDS011;10107;51.198;6.824;2022-12-29T09:56:16;5.55;;;1.17;;
19889;SDS011;10107;51.198;6.824;2022-12-29T10:00:21;3.83;;;1.10;;
19889;SDS011;10107;51.198;6.824;2022-12-29T10:04:27;5.70;;;1.10;;
19889;SDS011;10107;51.198;6.824;2022-12-29T10:08:32;5.70;;;1.42;;
19889;SDS011;10107;51.198;6.824;2022-12-29T10:12:46;4.85;;;1.10;;
19889;SDS011;10107;51.198;6.824;2022-12-29T10:16:57;4.18;;;1.48;;
19889;SDS011;10107;51.198;6.824;2022-12-29T10:21:07;4.22;;;1.10;;
19889;SDS011;10107;51.198;6.824;2022-12-29T10:25:17;4.40;;;1.08;;
19889;SDS011;10107;51.198;6.824;2022-12-29T10:29:23;7.00;;;1.10;;
19889;SDS011;10107;51.198;6.824;2022-12-29T10:33:32;4.47;;;1.00;;
19889;SDS011;10107;51.198;6.824;2022-12-29T10:37:38;3.33;;;1.20;;
19889;SDS011;10107;51.198;6.824;2022-12-29T10:41:46;5.07;;;1.00;;
19889;SDS011;10107;51.198;6.824;2022-12-29T10:45:51;5.75;;;1.38;;
19889;SDS011;10107;51.198;6.824;2022-12-29T10:49:56;3.33;;;1.00;;
19889;SDS011;10107;51.198;6.824;2022-12-29T10:54:03;5.85;;;1.15;;
19889;SDS011;10107;51.198;6.824;2022-12-29T10:58:12;7.53;;;1.40;;
19889;SDS011;10107;51.198;6.824;2022-12-29T11:02:22;4.55;;;1.35;;
19889;SDS011;10107;51.198;6.824;2022-12-29T11:06:38;3.85;;;1.15;;
19889;SDS011;10107;51.198;6.824;2022-12-29T11:10:40;5.88;;;1.23;;
19889;SDS011;10107;51.198;6.824;2022-12-29T11:14:45;4.30;;;1.17;;
19889;SDS011;10107;51.198;6.824;2022-12-29T11:18:47;6.38;;;1.33;;
19889;SDS011;10107;51.198;6.824;2022-12-29T11:22:49;6.18;;;1.60;;
19889;SDS011;10107;51.198;6.824;2022-12-29T11:26:53;2.92;;;0.85;;
19889;SDS011;10107;51.198;6.824;2022-12-29T11:31:00;7.85;;;1.67;;
19889;SDS011;10107;51.198;6.824;2022-12-29T11:35:03;7.63;;;1.75;;
19889;SDS011;10107;51.198;6.824;2022-12-29T11:39:06;8.90;;;2.00;;
19889;SDS011;10107;51.198;6.824;2022-12-29T11:43:29;7.07;;;1.35;;
19889;SDS011;10107;51.198;6.824;2022-12-29T11:47:35;7.38;;;1.63;;
19889;SDS011;10107;51.198;6.824;2022-12-29T11:51:38;4.13;;;1.20;;
19889;SDS011;10107;51.198;6.824;2022-12-29T11:55:50;8.85;;;1.80;;
19889;SDS011;10107;51.198;6.824;2022-12-29T11:59:54;9.88;;;1.45;;
19889;SDS011;10107;51.198;6.824;2022-12-29T12:03:59;6.35;;;1.70;;
19889;SDS011;10107;51.198;6.824;2022-12-29T12:08:07;8.63;;;1.45;;
19889;SDS011;10107;51.198;6.824;2022-12-29T12:12:15;5.90;;;1.38;;
19889;SDS011;10107;51.198;6.824;2022-12-29T12:16:24;8.65;;;1.52;;
19889;SDS011;10107;51.198;6.824;2022-12-29T12:20:35;6.88;;;1.52;;
19889;SDS011;10107;51.198;6.824;2022-12-29T12:24:44;7.13;;;1.90;;
19889;SDS011;10107;51.198;6.824;2022-12-29T12:28:51;8.45;;;1.88;;
19889;SDS011;10107;51.198;6.824;2022-12-29T12:32:58;6.50;;;1.40;;
19889;SDS011;10107;51.198;6.824;2022-12-29T12:37:09;8.35;;;1.90;;
19889;SDS011;10107;51.198;6.824;2022-12-29T12:41:20;8.32;;;2.03;;
19889;SDS011;10107;51.198;6.824;2022-12-29T12:45:36;6.95;;;1.55;;
19889;SDS011;10107;51.198;6.824;2022-12-29T12:50:05;7.25;;;1.38;;
19889;SDS011;10107;51.198;6.824;2022-12-29T12:54:29;7.00;;;1.20;;
19889;SDS011;10107;51.198;6.824;2022-12-29T12:58:48;5.47;;;1.92;;
19889;SDS011;10107;51.198;6.824;2022-12-29T13:02:58;9.10;;;3.83;;
19889;SDS011;10107;51.198;6.824;2022-12-29T13:07:12;10.00;;;1.50;;
19889;SDS011;10107;51.198;6.824;2022-12-29T13:11:24;4.82;;;1.25;;
19889;SDS011;10107;51.198;6.824;2022-12-29T13:15:36;3.80;;;0.90;;
19889;SDS011;10107;51.198;6.824;2022-12-29T13:19:50;5.30;;;1.20;;
19889;SDS011;10107;51.198;6.824;2022-12-29T13:23:59;5.65;;;1.20;;
19889;SDS011;10107;51.198;6.824;2022-12-29T13:28:12;5.30;;;1.10;;
19889;SDS011;10107;51.198;6.824;2022-12-29T13:32:24;4.05;;;1.10;;
19889;SDS011;10107;51.198;6.824;2022-12-29T13:36:36;5.88;;;1.52;;
19889;SDS011;10107;51.198;6.824;2022-12-29T13:40:44;4.13;;;1.20;;
19889;SDS011;10107;51.198;6.824;2022-12-29T13:44:53;5.70;;;1.50;;
19889;SDS011;10107;51.198;6.824;2022-12-29T13:49:01;6.88;;;1.40;;
19889;SDS011;10107;51.198;6.824;2022-12-29T13:53:10;7.70;;;1.55;;
19889;SDS011;10107;51.198;6.824;2022-12-29T13:57:18;6.57;;;1.25;;
19889;SDS011;10107;51.198;6.824;2022-12-29T14:01:33;6.78;;;1.73;;
19889;SDS011;10107;51.198;6.824;2022-12-29T14:05:38;7.47;;;1.10;;
19889;SDS011;10107;51.198;6.824;2022-12-29T14:09:41;3.90;;;1.10;;
19889;SDS011;10107;51.198;6.824;2022-12-29T14:13:46;6.88;;;1.10;;
19889;SDS011;10107;51.198;6.824;2022-12-29T14:22:15;3.03;;;0.75;;
19889;SDS011;10107;51.198;6.824;2022-12-29T14:26:35;3.50;;;1.00;;
19889;SDS011;10107;51.198;6.824;2022-12-29T14:35:31;2.60;;;1.23;;
19889;SDS011;10107;51.198;6.824;2022-12-29T14:39:41;3.28;;;1.35;;
19889;SDS011;10107;51.198;6.824;2022-12-29T14:43:54;5.68;;;1.15;;
19889;SDS011;10107;51.198;6.824;2022-12-29T14:47:59;6.10;;;1.60;;
19889;SDS011;10107;51.198;6.824;2022-12-29T14:52:06;5.70;;;1.30;;
19889;SDS011;10107;51.198;6.824;2022-12-29T14:56:16;6.18;;;1.23;;
19889;SDS011;10107;51.198;6.824;2022-12-29T15:00:21;6.15;;;1.42;;
19889;SDS011;10107;51.198;6.824;2022-12-29T15:04:27;4.88;;;1.50;;
19889;SDS011;10107;51.198;6.824;2022-12-29T15:08:35;6.82;;;1.70;;
19889;SDS011;10107;51.198;6.824;2022-12-29T15:12:40;2.97;;;1.30;;
19889;SDS011;10107;51.198;6.824;2022-12-29T15:16:44;4.88;;;1.55;;
19889;SDS011;10107;51.198;6.824;2022-12-29T15:20:46;4.25;;;1.30;;
19889;SDS011;10107;51.198;6.824;2022-12-29T15:24:54;4.10;;;1.10;;
19889;SDS011;10107;51.198;6.824;2022-12-29T15:28:56;3.35;;;1.55;;
19889;SDS011;10107;51.198;6.824;2022-12-29T15:32:58;6.88;;;1.45;;
19889;SDS011;10107;51.198;6.824;2022-12-29T15:37:05;4.25;;;1.45;;
19889;SDS011;10107;51.198;6.824;2022-12-29T15:41:13;3.40;;;1.23;;
19889;SDS011;10107;51.198;6.824;2022-12-29T15:45:26;4.00;;;1.30;;
19889;SDS011;10107;51.198;6.824;2022-12-29T15:49:31;5.70;;;1.40;;
19889;SDS011;10107;51.198;6.824;2022-12-29T15:53:34;6.28;;;1.33;;
19889;SDS011;10107;51.198;6.824;2022-12-29T15:57:41;4.97;;;1.40;;
19889;SDS011;10107;51.198;6.824;2022-12-29T16:01:44;2.17;;;1.15;;
19889;SDS011;10107;51.198;6.824;2022-12-29T16:05:49;4.95;;;1.23;;
19889;SDS011;10107;51.198;6.824;2022-12-29T16:09:56;8.88;;;2.50;;
19889;SDS011;10107;51.198;6.824;2022-12-29T16:14:00;6.55;;;1.90;;
19889;SDS011;10107;51.198;6.824;2022-12-29T16:18:03;7.72;;;2.90;;
19889;SDS011;10107;51.198;6.824;2022-12-29T16:22:08;7.30;;;3.00;;
19889;SDS011;10107;51.198;6.824;2022-12-29T16:26:14;5.53;;;1.60;;
19889;SDS011;10107;51.198;6.824;2022-12-29T16:30:20;5.82;;;2.80;;
19889;SDS011;10107;51.198;6.824;2022-12-29T16:34:25;8.93;;;2.33;;
19889;SDS011;10107;51.198;6.824;2022-12-29T16:38:31;5.63;;;2.38;;
19889;SDS011;10107;51.198;6.824;2022-12-29T16:42:34;7.45;;;2.70;;
19889;SDS011;10107;51.198;6.824;2022-12-29T16:46:38;8.70;;;3.03;;
19889;SDS011;10107;51.198;6.824;2022-12-29T16:50:47;8.15;;;2.83;;
19889;SDS011;10107;51.198;6.824;2022-12-29T16:54:52;8.15;;;2.78;;
19889;SDS011;10107;51.198;6.824;2022-12-29T16:59:01;6.43;;;2.50;;
19889;SDS011;10107;51.198;6.824;2022-12-29T17:03:08;10.40;;;2.30;;
19889;SDS011;10107;51.198;6.824;2022-12-29T17:07:13;7.38;;;2.40;;
19889;SDS011;10107;51.198;6.824;2022-12-29T17:11:20;8.80;;;2.40;;
19889;SDS011;10107;51.198;6.824;2022-12-29T17:15:41;6.97;;;1.70;;
19889;SDS011;10107;51.198;6.824;2022-12-29T17:19:46;6.20;;;1.77;;
19889;SDS011;10107;51.198;6.824;2022-12-29T17:23:50;8.23;;;2.08;;
19889;SDS011;10107;51.198;6.824;2022-12-29T17:27:52;11.32;;;3.38;;
19889;SDS011;10107;51.198;6.824;2022-12-29T17:31:58;7.65;;;2.50;;
19889;SDS011;10107;51.198;6.824;2022-12-29T17:36:03;11.55;;;3.13;;
19889;SDS011;10107;51.198;6.824;2022-12-29T17:40:05;7.63;;;2.33;;
19889;SDS011;10107;51.198;6.824;2022-12-29T17:48:15;9.43;;;2.80;;
19889;SDS011;10107;51.198;6.824;2022-12-29T17:52:19;11.75;;;3.08;;
19889;SDS011;10107;51.198;6.824;2022-12-29T17:56:21;7.55;;;2.47;;
19889;SDS011;10107;51.198;6.824;2022-12-29T18:00:24;8.15;;;2.70;;
19889;SDS011;10107;51.198;6.824;2022-12-29T18:04:27;8.60;;;1.90;;
19889;SDS011;10107;51.198;6.824;2022-12-29T18:08:31;8.68;;;2.55;;
19889;SDS011;10107;51.198;6.824;2022-12-29T18:12:34;7.30;;;2.25;;
19889;SDS011;10107;51.198;6.824;2022-12-29T18:16:39;9.05;;;2.42;;
19889;SDS011;10107;51.198;6.824;2022-12-29T18:20:41;10.40;;;2.65;;
19889;SDS011;10107;51.198;6.824;2022-12-29T18:24:46;8.95;;;2.40;;
19889;SDS011;10107;51.198;6.824;2022-12-29T18:28:53;10.00;;;2.90;;
19889;SDS011;10107;51.198;6.824;2022-12-29T18:32:56;9.57;;;4.00;;
19889;SDS011;10107;51.198;6.824;2022-12-29T18:36:59;10.45;;;4.05;;
19889;SDS011;10107;51.198;6.824;2022-12-29T18:41:03;10.60;;;2.67;;
19889;SDS011;10107;51.198;6.824;2022-12-29T18:45:10;8.05;;;2.95;;
19889;SDS011;10107;51.198;6.824;2022-12-29T18:49:16;10.35;;;3.13;;
19889;SDS011;10107;51.198;6.824;2022-12-29T18:53:21;9.35;;;2.75;;
19889;SDS011;10107;51.198;6.824;2022-12-29T18:57:25;7.15;;;3.03;;
19889;SDS011;10107;51.198;6.824;2022-12-29T19:01:30;8.93;;;2.63;;
19889;SDS011;10107;51.198;6.824;2022-12-29T19:05:34;13.40;;;3.17;;
19889;SDS011;10107;51.198;6.824;2022-12-29T19:09:38;9.23;;;3.03;;
19889;SDS011;10107;51.198;6.824;2022-12-29T19:13:41;9.10;;;3.05;;
19889;SDS011;10107;51.198;6.824;2022-12-29T19:17:43;6.85;;;2.78;;
19889;SDS011;10107;51.198;6.824;2022-12-29T19:21:45;11.00;;;3.08;;
19889;SDS011;10107;51.198;6.824;2022-12-29T19:25:48;12.40;;;3.40;;
19889;SDS011;10107;51.198;6.824;2022-12-29T19:29:52;8.07;;;3.50;;
19889;SDS011;10107;51.198;6.824;2022-12-29T19:33:54;9.13;;;2.77;;
19889;SDS011;10107;51.198;6.824;2022-12-29T19:37:56;10.20;;;2.70;;
19889;SDS011;10107;51.198;6.824;2022-12-29T19:41:57;8.23;;;2.75;;
19889;SDS011;10107;51.198;6.824;2022-12-29T19:46:05;7.38;;;2.50;;
19889;SDS011;10107;51.198;6.824;2022-12-29T19:50:09;7.47;;;2.63;;
19889;SDS011;10107;51.198;6.824;2022-12-29T19:54:12;7.70;;;1.98;;
19889;SDS011;10107;51.198;6.824;2022-12-29T19:58:14;6.75;;;1.83;;
19889;SDS011;10107;51.198;6.824;2022-12-29T20:02:18;5.13;;;2.50;;
19889;SDS011;10107;51.198;6.824;2022-12-29T20:06:21;4.97;;;1.73;;
19889;SDS011;10107;51.198;6.824;2022-12-29T20:10:22;7.32;;;2.10;;
19889;SDS011;10107;51.198;6.824;2022-12-29T20:14:24;8.27;;;2.08;;
19889;SDS011;10107;51.198;6.824;2022-12-29T20:18:27;6.53;;;2.45;;
19889;SDS011;10107;51.198;6.824;2022-12-29T20:22:30;5.43;;;2.08;;
19889;SDS011;10107;51.198;6.824;2022-12-29T20:26:32;8.60;;;2.63;;
19889;SDS011;10107;51.198;6.824;2022-12-29T20:30:33;10.18;;;2.70;;
19889;SDS011;10107;51.198;6.824;2022-12-29T20:34:36;9.95;;;2.20;;
19889;SDS011;10107;51.198;6.824;2022-12-29T20:38:39;8.15;;;1.85;;
19889;SDS011;10107;51.198;6.824;2022-12-29T20:42:41;9.20;;;2.40;;
19889;SDS011;10107;51.198;6.824;2022-12-29T20:46:43;9.85;;;2.40;;
19889;SDS011;10107;51.198;6.824;2022-12-29T20:50:46;8.77;;;2.20;;
19889;SDS011;10107;51.198;6.824;2022-12-29T20:54:48;8.52;;;2.22;;
19889;SDS011;10107;51.198;6.824;2022-12-29T20:58:50;9.13;;;2.30;;
19889;SDS011;10107;51.198;6.824;2022-12-29T21:02:54;8.40;;;2.33;;
19889;SDS011;10107;51.198;6.824;2022-12-29T21:06:58;11.35;;;2.30;;
19889;SDS011;10107;51.198;6.824;2022-12-29T21:11:04;11.82;;;2.95;;
19889;SDS011;10107;51.198;6.824;2022-12-29T21:15:10;12.75;;;3.28;;
19889;SDS011;10107;51.198;6.824;2022-12-29T21:19:13;8.75;;;2.40;;
19889;SDS011;10107;51.198;6.824;2022-12-29T21:23:17;8.65;;;2.33;;
19889;SDS011;10107;51.198;6.824;2022-12-29T21:27:19;6.07;;;2.58;;
19889;SDS011;10107;51.198;6.824;2022-12-29T21:31:25;8.00;;;2.47;;
19889;SDS011;10107;51.198;6.824;2022-12-29T21:35:33;8.68;;;2.30;;
19889;SDS011;10107;51.198;6.824;2022-12-29T21:39:36;8.35;;;2.58;;
19889;SDS011;10107;51.198;6.824;2022-12-29T21:43:38;14.23;;;2.60;;
19889;SDS011;10107;51.198;6.824;2022-12-29T21:47:40;9.40;;;2.38;;
19889;SDS011;10107;51.198;6.824;2022-12-29T21:51:55;9.23;;;2.35;;
19889;SDS011;10107;51.198;6.824;2022-12-29T21:55:58;6.45;;;1.92;;
19889;SDS011;10107;51.198;6.824;2022-12-29T22:00:00;5.53;;;1.83;;
19889;SDS011;10107;51.198;6.824;2022-12-29T22:04:21;10.60;;;2.28;;
19889;SDS011;10107;51.198;6.824;2022-12-29T22:08:41;4.65;;;2.05;;
19889;SDS011;10107;51.198;6.824;2022-12-29T22:13:03;12.13;;;2.92;;
19889;SDS011;10107;51.198;6.824;2022-12-29T22:17:04;10.10;;;1.95;;
19889;SDS011;10107;51.198;6.824;2022-12-29T22:21:08;8.88;;;2.00;;
19889;SDS011;10107;51.198;6.824;2022-12-29T22:25:11;13.35;;;2.20;;
19889;SDS011;10107;51.198;6.824;2022-12-29T22:29:16;8.25;;;2.00;;
19889;SDS011;10107;51.198;6.824;2022-12-29T22:37:20;12.27;;;2.58;;
19889;SDS011;10107;51.198;6.824;2022-12-29T22:41:24;10.63;;;2.00;;
19889;SDS011;10107;51.198;6.824;2022-12-29T22:45:27;9.13;;;2.17;;
19889;SDS011;10107;51.198;6.824;2022-12-29T22:49:28;7.53;;;1.97;;
19889;SDS011;10107;51.198;6.824;2022-12-29T22:53:31;5.88;;;1.95;;
19889;SDS011;10107;51.198;6.824;2022-12-29T22:57:33;9.20;;;2.28;;
19889;SDS011;10107;51.198;6.824;2022-12-29T23:01:37;8.73;;;2.90;;
19889;SDS011;10107;51.198;6.824;2022-12-29T23:05:39;7.32;;;2.08;;
19889;SDS011;10107;51.198;6.824;2022-12-29T23:09:40;8.85;;;1.98;;
19889;SDS011;10107;51.198;6.824;2022-12-29T23:13:42;8.60;;;2.10;;
19889;SDS011;10107;51.198;6.824;2022-12-29T23:17:46;7.22;;;1.90;;
19889;SDS011;10107;51.198;6.824;2022-12-29T23:21:48;8.63;;;2.17;;
19889;SDS011;10107;51.198;6.824;2022-12-29T23:25:49;8.32;;;2.30;;
19889;SDS011;10107;51.198;6.824;2022-12-29T23:29:51;9.43;;;2.58;;
19889;SDS011;10107;51.198;6.824;2022-12-29T23:33:55;7.72;;;1.70;;
19889;SDS011;10107;51.198;6.824;2022-12-29T23:37:56;7.45;;;1.52;;
19889;SDS011;10107;51.198;6.824;2022-12-29T23:41:58;12.38;;;2.72;;
19889;SDS011;10107;51.198;6.824;2022-12-29T23:46:04;8.25;;;2.25;;
19889;SDS011;10107;51.198;6.824;2022-12-29T23:50:08;9.07;;;1.95;;
19889;SDS011;10107;51.198;6.824;2022-12-29T23:54:10;5.88;;;2.08;;
19889;SDS011;10107;51.198;6.824;2022-12-29T23:58:12;7.88;;;2.65;;
